Status Flugplatz

Der Flugplatz ist offen
PPR Regelung ! PJE !!!

123.15 MHz
RWY 05/23

flüger beizli - Öffnungszeiten
Freitag ab 16:00
Samstag +Sonntag ab 11:00
Bei schönem Wetter öffnen wir früher! Tel.: 079 234 07 74
[source: ADDS]
METAR
LSZB 201750Z VRB01KT CAVOK 12/06 Q1021 NOSIG =
TAF
TAF LSZB 201425Z 2015/2024 VRB03KT 9999 SCT050 BECMG 2016/2019 CAVOK =

 


 

[source: ADDS]
METAR
LSGC 201750Z AUTO 02003KT 320V070 CAVOK 07/05 Q1022 =
TAF
TAF LSGC 201425Z 2015/2024 03005KT 9999 SCT030 =

 


 

[source: ADDS]
METAR
LFSB 201730Z 33004KT 9999 FEW050 BKN260 12/09 Q1021 NOSIG =
TAF
TAF LFSB 201700Z 2018/2118 VRB04KT 9999 FEW040 TEMPO 2022/2106 4000 MIFG PROB40 TEMPO 2100/2106 1200 BCFG SCT002 PROB30 2102/2106 0400 FG VV/// BECMG 2107/2109 01005KT BECMG 2114/2116 10006KT =

Wetter Kappelen

 


 

[source: ADDS]
METAR
LSZG 201750Z AUTO 07002KT CAVOK 12/06 Q1021 =
TAF
TAF LSZG 201425Z 2015/2024 08004KT 9999 FEW060 BECMG 2015/2018 CAVOK BECMG 2022/2024 6000 MIFG NSC =
SR / SS: 05:16 / 17:33 UTC ( 2017-09-20)

 


 

Flugplatz Biel-Kappelen LSZP - 123.15MHz - 032 384 46 84

Email: Diese E-Mail-Adresse ist vor Spambots geschützt! Zur Anzeige muss JavaScript eingeschaltet sein!
www.lszp.ch
2017 © by mb

Zum Anfang